createdAt,value
2022-08-26T00:00:56.839Z,7.93
2022-08-26T00:02:59.007Z,11.77
2022-08-26T00:05:00.512Z,7.75
2022-08-26T00:07:02.109Z,5.57
2022-08-26T00:09:04.834Z,7.28
2022-08-26T00:11:10.091Z,9.05
2022-08-26T00:13:12.853Z,8.60
2022-08-26T00:15:16.450Z,13.48
2022-08-26T00:17:18.742Z,4.82
2022-08-26T00:19:21.173Z,6.55
2022-08-26T00:21:22.918Z,8.82
2022-08-26T00:23:25.617Z,6.45
2022-08-26T00:25:30.769Z,8.23
2022-08-26T00:27:37.042Z,4.78
2022-08-26T00:29:40.065Z,9.20
2022-08-26T00:31:42.100Z,4.88
2022-08-26T00:33:43.852Z,5.07
2022-08-26T00:35:47.428Z,5.75
2022-08-26T00:37:49.224Z,11.82
2022-08-26T00:39:50.772Z,7.47
2022-08-26T00:41:54.575Z,6.22
2022-08-26T00:43:56.209Z,6.55
2022-08-26T00:46:10.396Z,5.30
2022-08-26T00:48:14.687Z,10.23
2022-08-26T00:50:20.910Z,5.03
2022-08-26T00:52:24.281Z,5.95
2022-08-26T00:54:30.546Z,9.18
2022-08-26T00:56:38.183Z,8.68
2022-08-26T00:58:43.021Z,7.18
2022-08-26T01:00:45.358Z,5.70
2022-08-26T01:02:48.688Z,12.23
2022-08-26T01:04:57.936Z,11.57
2022-08-26T01:07:00.360Z,9.35
2022-08-26T01:09:02.546Z,5.00
2022-08-26T01:11:05.415Z,7.53
2022-08-26T01:13:11.320Z,5.70
2022-08-26T01:15:17.507Z,11.00
2022-08-26T01:17:19.349Z,8.05
2022-08-26T01:19:32.508Z,9.18
2022-08-26T01:21:41.329Z,7.35
2022-08-26T01:23:47.474Z,5.97
2022-08-26T01:25:55.968Z,7.80
2022-08-26T01:27:59.948Z,7.90
2022-08-26T01:30:02.518Z,13.88
2022-08-26T01:32:05.534Z,9.43
2022-08-26T01:34:17.644Z,12.57
2022-08-26T01:36:21.326Z,8.90
2022-08-26T01:38:23.796Z,9.18
2022-08-26T01:40:32.757Z,7.07
2022-08-26T01:42:34.393Z,7.03
2022-08-26T01:44:43.878Z,8.73
2022-08-26T01:46:48.862Z,10.13
2022-08-26T01:48:55.059Z,9.30
2022-08-26T01:50:57.391Z,9.43
2022-08-26T01:53:02.478Z,12.48
2022-08-26T01:55:04.910Z,9.85
2022-08-26T01:57:07.709Z,11.23
2022-08-26T01:59:13.218Z,8.45
2022-08-26T02:01:15.734Z,7.57
2022-08-26T02:03:18.900Z,9.30
2022-08-26T02:05:22.118Z,9.75
2022-08-26T02:07:26.625Z,11.20
2022-08-26T02:09:28.539Z,8.23
2022-08-26T02:11:33.503Z,10.10
2022-08-26T02:13:40.002Z,7.22
2022-08-26T02:15:44.441Z,6.68
2022-08-26T02:17:47.390Z,5.90
2022-08-26T02:19:50.400Z,12.38
2022-08-26T02:21:52.885Z,8.07
2022-08-26T02:23:56.197Z,8.38
2022-08-26T02:26:08.712Z,13.23
2022-08-26T02:28:12.305Z,10.15
2022-08-26T02:30:21.165Z,9.57
2022-08-26T02:32:23.386Z,7.47
2022-08-26T02:34:32.785Z,8.88
2022-08-26T02:36:34.639Z,5.70
2022-08-26T02:38:36.436Z,10.40
2022-08-26T02:40:41.376Z,14.98
2022-08-26T02:42:43.232Z,8.48
2022-08-26T02:44:44.744Z,6.88
2022-08-26T02:46:47.220Z,11.25
2022-08-26T02:48:48.881Z,9.25
2022-08-26T02:50:50.389Z,8.43
2022-08-26T02:52:53.121Z,8.35
2022-08-26T02:54:54.649Z,11.77
2022-08-26T02:56:56.726Z,8.30
2022-08-26T02:58:58.845Z,6.28
2022-08-26T03:01:01.566Z,9.60
2022-08-26T03:03:06.741Z,10.93
2022-08-26T03:05:08.816Z,12.75
2022-08-26T03:07:10.290Z,7.43
2022-08-26T03:09:15.974Z,9.40
2022-08-26T03:11:20.408Z,8.02
2022-08-26T03:13:23.271Z,11.55
2022-08-26T03:15:24.895Z,13.63
2022-08-26T03:17:26.950Z,10.98
2022-08-26T03:19:28.994Z,11.38
2022-08-26T03:21:33.211Z,6.10
2022-08-26T03:23:35.260Z,14.18
2022-08-26T03:25:36.773Z,9.57
2022-08-26T03:27:38.365Z,6.75
2022-08-26T03:29:58.946Z,7.85
2022-08-26T03:32:01.550Z,5.70
2022-08-26T03:34:04.192Z,11.93
2022-08-26T03:36:07.747Z,12.40
2022-08-26T03:38:10.066Z,7.10
2022-08-26T03:40:12.164Z,13.90
2022-08-26T03:42:14.941Z,11.27
2022-08-26T03:44:16.882Z,9.80
2022-08-26T03:46:20.611Z,9.95
2022-08-26T03:48:22.599Z,8.02
2022-08-26T03:50:25.281Z,13.63
2022-08-26T03:52:30.110Z,13.30
2022-08-26T03:54:31.727Z,12.45
2022-08-26T03:56:33.669Z,13.63
2022-08-26T03:58:35.483Z,11.32
2022-08-26T04:00:36.964Z,12.73
2022-08-26T04:02:38.703Z,9.23
2022-08-26T04:04:40.248Z,10.13
2022-08-26T04:06:43.324Z,8.45
2022-08-26T04:08:46.349Z,8.80
2022-08-26T04:10:47.833Z,7.18
2022-08-26T04:12:53.326Z,11.90
2022-08-26T04:14:54.866Z,10.65
2022-08-26T04:16:58.773Z,7.32
2022-08-26T04:19:00.605Z,9.38
2022-08-26T04:21:02.618Z,9.50
2022-08-26T04:23:09.568Z,10.88
2022-08-26T04:25:12.782Z,9.93
2022-08-26T04:27:14.355Z,6.75
2022-08-26T04:29:23.941Z,10.85
2022-08-26T04:31:26.299Z,9.20
2022-08-26T04:33:32.517Z,10.80
2022-08-26T04:35:35.198Z,10.68
2022-08-26T04:37:36.695Z,12.27
2022-08-26T04:39:38.196Z,11.45
2022-08-26T04:41:40.200Z,9.98
2022-08-26T04:43:41.976Z,13.07
2022-08-26T04:45:43.986Z,6.85
2022-08-26T04:47:46.786Z,14.15
2022-08-26T04:49:48.359Z,12.38
2022-08-26T04:51:49.904Z,12.50
2022-08-26T04:53:51.387Z,11.68
2022-08-26T04:55:55.287Z,11.50
2022-08-26T04:57:57.273Z,20.88
2022-08-26T04:59:58.766Z,9.43
2022-08-26T05:02:01.645Z,17.40
2022-08-26T05:04:05.015Z,11.93
2022-08-26T05:06:09.703Z,18.50
2022-08-26T05:08:12.938Z,10.48
2022-08-26T05:10:14.679Z,14.40
2022-08-26T05:12:16.425Z,11.38
2022-08-26T05:14:18.366Z,14.95
2022-08-26T05:16:19.988Z,9.27
2022-08-26T05:18:24.211Z,16.52
2022-08-26T05:20:26.316Z,15.82
2022-08-26T05:22:27.850Z,13.10
2022-08-26T05:24:30.202Z,13.32
2022-08-26T05:26:32.341Z,12.27
2022-08-26T05:28:33.883Z,13.75
2022-08-26T05:30:38.101Z,14.48
2022-08-26T05:32:40.120Z,9.95
2022-08-26T05:34:42.924Z,10.48
2022-08-26T05:36:44.609Z,14.02
2022-08-26T05:38:46.451Z,11.35
2022-08-26T05:40:52.602Z,15.70
2022-08-26T05:42:55.077Z,13.60
2022-08-26T05:44:56.656Z,10.63
2022-08-26T05:46:58.148Z,9.13
2022-08-26T05:48:59.738Z,13.07
2022-08-26T05:51:04.965Z,13.48
2022-08-26T05:53:08.938Z,13.73
2022-08-26T05:55:10.481Z,15.02
2022-08-26T05:57:13.829Z,13.63
2022-08-26T05:59:16.083Z,20.55
2022-08-26T06:01:28.035Z,11.73
2022-08-26T06:03:31.653Z,10.57
2022-08-26T06:05:38.421Z,14.27
2022-08-26T06:07:59.290Z,17.88
2022-08-26T06:10:28.170Z,13.80
2022-08-26T06:12:22.367Z,19.08
2022-08-26T06:14:25.916Z,14.40
2022-08-26T06:16:28.400Z,15.55
2022-08-26T06:18:36.230Z,15.38
2022-08-26T06:20:43.494Z,15.25
2022-08-26T06:25:34.516Z,11.00
2022-08-26T06:27:36.751Z,14.38
2022-08-26T06:29:38.856Z,12.35
2022-08-26T06:31:40.356Z,12.32
2022-08-26T06:33:42.901Z,16.27
2022-08-26T06:35:46.810Z,15.48
2022-08-26T06:37:49.967Z,13.40
2022-08-26T06:39:51.547Z,13.82
2022-08-26T06:41:53.076Z,16.83
2022-08-26T06:43:54.670Z,17.15
2022-08-26T06:46:05.231Z,14.38
2022-08-26T06:48:07.639Z,12.35
2022-08-26T06:50:09.294Z,12.35
2022-08-26T06:52:11.258Z,14.43
2022-08-26T06:54:12.815Z,22.15
2022-08-26T06:56:17.313Z,15.07
2022-08-26T06:58:18.841Z,18.30
2022-08-26T07:00:21.369Z,16.75
2022-08-26T07:02:23.497Z,10.73
2022-08-26T07:04:29.949Z,13.25
2022-08-26T07:06:37.537Z,11.70
2022-08-26T07:08:40.914Z,16.30
2022-08-26T07:10:42.925Z,13.48
2022-08-26T07:12:47.258Z,9.02
2022-08-26T07:14:48.937Z,18.10
2022-08-26T07:16:50.962Z,10.95
2022-08-26T07:18:53.627Z,15.82
2022-08-26T07:20:55.118Z,14.25
2022-08-26T07:22:58.917Z,15.25
2022-08-26T07:25:00.489Z,15.13
2022-08-26T07:27:07.465Z,15.80
2022-08-26T07:29:12.496Z,12.65
2022-08-26T07:31:15.875Z,9.75
2022-08-26T07:33:17.986Z,17.77
2022-08-26T07:35:19.563Z,20.02
2022-08-26T07:37:21.063Z,14.70
2022-08-26T07:39:23.548Z,7.80
2022-08-26T07:41:25.775Z,15.23
2022-08-26T07:43:28.393Z,18.30
2022-08-26T07:45:30.866Z,19.73
2022-08-26T07:47:32.633Z,12.75
2022-08-26T07:49:34.481Z,16.33
2022-08-26T07:51:37.155Z,17.90
2022-08-26T07:53:39.852Z,15.30
2022-08-26T07:55:41.572Z,14.80
2022-08-26T07:57:43.191Z,9.77
2022-08-26T07:59:44.853Z,19.05
2022-08-26T08:01:47.579Z,13.57
2022-08-26T08:03:51.559Z,14.55
2022-08-26T08:05:53.347Z,13.35
2022-08-26T08:08:21.865Z,15.77
2022-08-26T08:10:21.037Z,12.52
2022-08-26T08:12:22.826Z,10.50
2022-08-26T08:14:24.316Z,14.27
2022-08-26T08:16:28.265Z,13.43
2022-08-26T08:18:34.134Z,16.55
2022-08-26T08:20:36.502Z,15.30
2022-08-26T08:22:38.140Z,18.35
2022-08-26T08:24:39.626Z,15.27
2022-08-26T08:26:41.796Z,11.93
2022-08-26T08:28:43.462Z,16.10
2022-08-26T08:30:45.665Z,11.80
2022-08-26T08:32:47.607Z,10.23
2022-08-26T08:34:49.675Z,8.02
2022-08-26T08:36:53.526Z,18.08
2022-08-26T08:38:55.850Z,16.42
2022-08-26T08:40:57.326Z,16.88
2022-08-26T08:43:13.516Z,18.38
2022-08-26T08:45:22.210Z,17.13
2022-08-26T08:47:29.529Z,16.73
2022-08-26T08:49:34.213Z,11.90
2022-08-26T08:51:40.404Z,14.48
2022-08-26T08:53:45.579Z,15.88
2022-08-26T08:56:01.955Z,20.70
2022-08-26T08:58:12.076Z,68.35
2022-08-26T09:00:19.680Z,23.40
2022-08-26T09:02:43.038Z,24.50
2022-08-26T09:05:07.878Z,19.17
2022-08-26T09:07:16.613Z,14.82
2022-08-26T09:09:39.586Z,17.70
2022-08-26T09:11:41.114Z,13.35
2022-08-26T09:13:49.978Z,10.38
2022-08-26T09:16:04.443Z,20.08
2022-08-26T09:18:32.110Z,16.58
2022-08-26T09:20:48.940Z,14.23
2022-08-26T09:22:51.677Z,13.65
2022-08-26T09:24:53.262Z,15.70
2022-08-26T09:26:57.686Z,9.75
2022-08-26T09:29:00.370Z,9.07
2022-08-26T09:31:24.244Z,10.50
2022-08-26T09:33:31.403Z,13.95
2022-08-26T09:35:36.594Z,13.30
2022-08-26T09:37:40.571Z,13.95
2022-08-26T09:39:42.670Z,16.77
2022-08-26T09:41:44.165Z,13.68
2022-08-26T09:44:09.170Z,14.25
2022-08-26T09:46:28.780Z,11.65
2022-08-26T09:48:36.870Z,12.82
2022-08-26T09:50:59.869Z,12.38
2022-08-26T09:53:16.596Z,18.60
2022-08-26T09:55:22.700Z,15.07
2022-08-26T09:57:34.241Z,13.05
2022-08-26T09:59:36.083Z,15.65
2022-08-26T10:01:44.712Z,16.70
2022-08-26T10:03:47.102Z,14.20
2022-08-26T10:06:02.584Z,10.02
2022-08-26T10:08:19.896Z,9.85
2022-08-26T10:10:33.477Z,12.68
2022-08-26T10:12:44.445Z,19.23
2022-08-26T10:14:51.991Z,16.05
2022-08-26T10:17:01.142Z,10.93
2022-08-26T10:19:10.583Z,21.05
2022-08-26T10:21:21.162Z,20.80
2022-08-26T10:23:27.766Z,15.57
2022-08-26T10:25:34.397Z,16.23
2022-08-26T10:27:53.924Z,16.60
2022-08-26T10:30:03.842Z,13.05
2022-08-26T10:32:13.821Z,15.20
2022-08-26T10:34:17.824Z,10.23
2022-08-26T10:37:05.051Z,13.18
2022-08-26T10:39:08.063Z,8.88
2022-08-26T10:41:24.144Z,10.50
2022-08-26T10:43:32.768Z,13.45
2022-08-26T10:45:38.691Z,12.02
2022-08-26T10:47:55.665Z,14.27
2022-08-26T10:50:03.339Z,12.52
2022-08-26T10:52:18.319Z,6.43
2022-08-26T10:54:31.539Z,19.90
2022-08-26T10:56:46.842Z,10.00
2022-08-26T10:58:57.840Z,15.32
2022-08-26T11:01:42.156Z,10.82
2022-08-26T11:04:10.358Z,17.92
2022-08-26T11:06:18.368Z,8.27
2022-08-26T11:08:19.838Z,14.10
2022-08-26T11:10:22.842Z,10.93
2022-08-26T11:12:37.471Z,18.67
2022-08-26T11:14:53.214Z,9.55
2022-08-26T11:16:59.783Z,14.25
2022-08-26T11:19:01.624Z,16.30
2022-08-26T11:21:03.618Z,18.70
2022-08-26T11:23:20.617Z,17.48
2022-08-26T11:25:29.933Z,19.05
2022-08-26T11:27:35.338Z,17.55
2022-08-26T11:29:57.498Z,12.75
2022-08-26T11:32:00.072Z,15.63
2022-08-26T11:34:07.166Z,21.08
2022-08-26T11:36:26.066Z,9.90
2022-08-26T11:38:29.496Z,22.75
2022-08-26T11:40:35.361Z,12.95
2022-08-26T11:42:36.971Z,15.32
2022-08-26T11:44:49.180Z,12.00
2022-08-26T11:46:57.471Z,15.10
2022-08-26T11:49:05.282Z,12.63
2022-08-26T11:51:13.590Z,15.18
2022-08-26T11:53:19.233Z,24.55
2022-08-26T11:55:23.470Z,12.00
2022-08-26T11:57:26.705Z,10.93
2022-08-26T11:59:38.726Z,12.52
2022-08-26T12:01:49.032Z,54.78
2022-08-26T12:03:52.237Z,19.65
2022-08-26T12:05:54.444Z,9.07
2022-08-26T12:07:57.224Z,16.88
2022-08-26T12:10:02.266Z,13.40
2022-08-26T12:12:18.488Z,14.40
2022-08-26T12:14:25.167Z,12.65
2022-08-26T12:16:40.420Z,24.05
2022-08-26T12:18:42.011Z,22.60
2022-08-26T12:20:46.506Z,20.80
2022-08-26T12:22:48.421Z,12.35
2022-08-26T12:24:53.812Z,26.67
2022-08-26T12:27:26.897Z,13.55
2022-08-26T12:29:29.767Z,17.80
2022-08-26T12:31:41.005Z,14.18
2022-08-26T12:33:42.985Z,19.35
2022-08-26T12:35:44.908Z,23.75
2022-08-26T12:37:50.804Z,10.25
2022-08-26T12:39:52.809Z,11.45
2022-08-26T12:42:02.624Z,12.55
2022-08-26T12:44:04.119Z,13.82
2022-08-26T12:46:06.961Z,13.77
2022-08-26T12:48:36.249Z,13.80
2022-08-26T12:50:44.471Z,9.00
2022-08-26T12:55:19.916Z,16.20
2022-08-26T12:57:35.090Z,13.27
2022-08-26T12:59:36.670Z,12.95
2022-08-26T13:01:43.543Z,11.88
2022-08-26T13:03:46.346Z,22.08
2022-08-26T13:05:47.949Z,17.92
2022-08-26T13:08:09.267Z,10.38
2022-08-26T13:10:36.301Z,11.50
2022-08-26T13:12:38.144Z,8.03
2022-08-26T13:14:40.465Z,11.55
2022-08-26T13:16:42.663Z,20.27
2022-08-26T13:18:44.171Z,13.43
2022-08-26T13:20:45.746Z,6.93
2022-08-26T13:22:48.753Z,9.88
2022-08-26T13:25:00.133Z,17.75
2022-08-26T13:27:03.195Z,10.77
2022-08-26T13:29:09.578Z,16.00
2022-08-26T13:31:13.641Z,7.75
2022-08-26T13:33:16.732Z,7.57
2022-08-26T13:35:19.766Z,8.95
2022-08-26T13:37:22.256Z,8.27
2022-08-26T13:39:36.747Z,6.53
2022-08-26T13:41:38.436Z,11.80
2022-08-26T13:43:39.948Z,9.88
2022-08-26T13:45:41.424Z,6.75
2022-08-26T13:47:42.916Z,8.00
2022-08-26T13:49:44.480Z,10.98
2022-08-26T13:51:45.990Z,13.10
2022-08-26T13:53:47.649Z,12.68
2022-08-26T13:55:49.199Z,14.70
2022-08-26T13:57:50.690Z,15.98
2022-08-26T13:59:53.935Z,15.27
2022-08-26T14:01:55.474Z,21.15
2022-08-26T14:03:57.371Z,14.60
2022-08-26T14:05:59.360Z,35.60
2022-08-26T14:08:01.025Z,21.95
2022-08-26T14:10:02.882Z,18.50
2022-08-26T14:12:04.469Z,18.13
2022-08-26T14:14:05.980Z,18.83
2022-08-26T14:16:20.666Z,16.83
2022-08-26T14:18:29.289Z,18.67
2022-08-26T14:20:32.233Z,17.90
2022-08-26T14:22:33.904Z,13.85
2022-08-26T14:24:35.389Z,15.85
2022-08-26T14:26:36.895Z,14.02
2022-08-26T14:28:38.540Z,15.38
2022-08-26T14:30:42.091Z,22.40
2022-08-26T14:32:46.816Z,20.38
2022-08-26T14:34:48.848Z,24.92
2022-08-26T14:36:50.321Z,15.90
2022-08-26T14:38:52.208Z,19.67
2022-08-26T14:40:53.700Z,20.75
2022-08-26T14:42:55.296Z,20.30
2022-08-26T14:45:02.777Z,26.50
2022-08-26T14:47:06.626Z,16.35
2022-08-26T14:49:10.704Z,16.45
2022-08-26T14:51:12.431Z,16.15
2022-08-26T14:53:33.701Z,16.08
2022-08-26T14:55:38.677Z,12.57
2022-08-26T14:57:40.159Z,18.95
2022-08-26T14:59:49.624Z,16.30
2022-08-26T15:01:52.650Z,14.98
2022-08-26T15:03:54.210Z,16.52
2022-08-26T15:05:55.706Z,17.17
2022-08-26T15:07:57.226Z,16.48
2022-08-26T15:09:58.735Z,12.45
2022-08-26T15:12:00.988Z,17.98
2022-08-26T15:14:02.775Z,13.90
2022-08-26T15:16:04.468Z,13.32
2022-08-26T15:18:06.073Z,13.82
2022-08-26T15:20:09.280Z,13.45
2022-08-26T15:22:10.762Z,13.57
2022-08-26T15:24:13.056Z,14.85
2022-08-26T15:26:16.476Z,14.50
2022-08-26T15:28:17.972Z,17.33
2022-08-26T15:30:19.477Z,7.30
2022-08-26T15:32:21.079Z,17.80
2022-08-26T15:34:22.703Z,12.15
2022-08-26T15:36:24.247Z,14.15
2022-08-26T15:38:28.001Z,10.48
2022-08-26T15:40:29.676Z,12.13
2022-08-26T15:42:31.430Z,24.48
2022-08-26T15:44:34.093Z,11.68
2022-08-26T15:46:37.549Z,16.13
2022-08-26T15:48:40.760Z,12.32
2022-08-26T15:50:50.705Z,15.93
2022-08-26T15:52:52.189Z,12.45
2022-08-26T15:54:53.746Z,19.83
2022-08-26T15:56:55.259Z,12.98
2022-08-26T15:58:57.526Z,19.60
2022-08-26T16:01:00.269Z,19.25
2022-08-26T16:03:01.762Z,15.68
2022-08-26T16:05:03.665Z,16.58
2022-08-26T16:07:05.309Z,16.23
2022-08-26T16:09:08.000Z,14.18
2022-08-26T16:11:09.490Z,21.02
2022-08-26T16:13:14.762Z,15.05
2022-08-26T16:15:16.941Z,16.05
2022-08-26T16:17:18.489Z,17.02
2022-08-26T16:19:20.050Z,13.60
2022-08-26T16:21:24.634Z,15.55
2022-08-26T16:23:26.254Z,17.50
2022-08-26T16:25:28.880Z,14.27
2022-08-26T16:27:30.585Z,19.60
2022-08-26T16:29:32.540Z,16.77
2022-08-26T16:31:34.663Z,13.98
2022-08-26T16:33:37.831Z,20.35
2022-08-26T16:35:39.819Z,12.48
2022-08-26T16:37:42.097Z,10.73
2022-08-26T16:39:45.136Z,14.10
2022-08-26T16:41:46.885Z,10.02
2022-08-26T16:43:48.641Z,15.38
2022-08-26T16:45:50.139Z,7.03
2022-08-26T16:47:52.446Z,6.10
2022-08-26T16:49:54.010Z,5.57
2022-08-26T16:51:55.571Z,6.35
2022-08-26T16:54:01.453Z,6.68
2022-08-26T16:56:03.142Z,8.95
2022-08-26T16:58:04.684Z,5.10
2022-08-26T17:00:12.539Z,19.88
2022-08-26T17:02:14.009Z,6.15
2022-08-26T17:04:15.679Z,5.65
2022-08-26T17:06:17.399Z,7.35
2022-08-26T17:08:28.390Z,3.83
2022-08-26T17:10:31.645Z,6.60
2022-08-26T17:12:36.100Z,7.30
2022-08-26T17:14:37.569Z,7.93
2022-08-26T17:16:39.612Z,13.35
2022-08-26T17:18:41.499Z,4.18
2022-08-26T17:20:45.055Z,8.40
2022-08-26T17:22:48.583Z,3.13
2022-08-26T17:24:50.066Z,2.50
2022-08-26T17:26:53.542Z,3.47
2022-08-26T17:28:58.099Z,2.47
2022-08-26T17:31:00.106Z,2.95
2022-08-26T17:33:01.665Z,6.53
2022-08-26T17:35:13.773Z,3.50
2022-08-26T17:37:15.264Z,3.47
2022-08-26T17:39:16.911Z,2.97
2022-08-26T17:41:18.945Z,6.65
2022-08-26T17:43:20.645Z,4.47
2022-08-26T17:45:22.733Z,3.97
2022-08-26T17:47:24.335Z,4.90
2022-08-26T17:49:25.916Z,7.05
2022-08-26T17:51:27.722Z,2.90
2022-08-26T17:53:29.420Z,5.15
2022-08-26T17:55:30.987Z,9.73
2022-08-26T17:57:32.662Z,2.70
2022-08-26T17:59:42.343Z,2.47
2022-08-26T18:01:44.286Z,2.80
2022-08-26T18:03:45.976Z,4.20
2022-08-26T18:05:49.786Z,2.65
2022-08-26T18:07:51.634Z,1.50
2022-08-26T18:09:53.194Z,2.25
2022-08-26T18:11:54.691Z,2.63
2022-08-26T18:13:56.187Z,3.08
2022-08-26T18:15:57.753Z,2.03
2022-08-26T18:17:59.872Z,2.35
2022-08-26T18:20:01.959Z,9.48
2022-08-26T18:22:03.564Z,2.45
2022-08-26T18:24:05.594Z,4.68
2022-08-26T18:26:07.131Z,4.45
2022-08-26T18:28:13.011Z,2.67
2022-08-26T18:30:20.709Z,4.13
2022-08-26T18:32:22.210Z,2.63
2022-08-26T18:34:23.797Z,3.72
2022-08-26T18:36:36.597Z,5.38
2022-08-26T18:38:38.125Z,4.00
2022-08-26T18:40:45.747Z,4.07
2022-08-26T18:42:47.221Z,1.02
2022-08-26T18:44:55.561Z,2.42
2022-08-26T18:46:57.237Z,4.97
2022-08-26T18:48:58.935Z,2.03
2022-08-26T18:51:00.599Z,1.77
2022-08-26T18:53:02.541Z,2.05
2022-08-26T18:55:04.435Z,2.35
2022-08-26T18:57:05.942Z,4.35
2022-08-26T18:59:09.311Z,4.88
2022-08-26T19:01:12.438Z,5.07
2022-08-26T19:03:18.392Z,4.80
2022-08-26T19:05:21.014Z,3.63
2022-08-26T19:07:22.873Z,2.50
2022-08-26T19:09:26.314Z,3.63
2022-08-26T19:11:31.585Z,3.13
2022-08-26T19:13:35.479Z,5.47
2022-08-26T19:15:39.381Z,5.70
2022-08-26T19:17:41.354Z,2.28
2022-08-26T19:19:42.919Z,7.55
2022-08-26T19:21:47.241Z,5.20
2022-08-26T19:23:49.434Z,5.45
2022-08-26T19:25:53.214Z,2.97
2022-08-26T19:27:55.988Z,2.17
2022-08-26T19:29:58.386Z,4.68
2022-08-26T19:31:59.997Z,5.45
2022-08-26T19:35:02.849Z,4.40
2022-08-26T19:42:53.496Z,4.95
2022-08-26T19:45:24.388Z,5.25
2022-08-26T19:47:55.777Z,1.48
2022-08-26T19:49:57.441Z,3.67
2022-08-26T19:51:59.320Z,6.60
2022-08-26T19:54:01.661Z,3.08
2022-08-26T19:56:03.357Z,4.32
2022-08-26T19:58:05.233Z,4.97
2022-08-26T20:00:14.667Z,6.63
2022-08-26T20:02:16.573Z,7.32
2022-08-26T20:04:18.196Z,5.38
2022-08-26T20:06:20.327Z,6.43
2022-08-26T20:08:22.827Z,7.65
2022-08-26T20:10:24.728Z,2.55
2022-08-26T20:12:27.494Z,4.70
2022-08-26T20:14:29.954Z,3.00
2022-08-26T20:16:32.752Z,4.80
2022-08-26T20:18:52.595Z,2.40
2022-08-26T20:21:12.492Z,3.00
2022-08-26T20:23:14.023Z,4.03
2022-08-26T20:25:16.077Z,5.97
2022-08-26T20:27:17.977Z,8.52
2022-08-26T20:29:19.676Z,3.33
2022-08-26T20:31:21.686Z,4.38
2022-08-26T20:33:23.219Z,4.10
2022-08-26T20:35:24.797Z,5.45
2022-08-26T20:37:26.579Z,4.43
2022-08-26T20:39:31.020Z,3.83
2022-08-26T20:41:32.898Z,3.92
2022-08-26T20:43:34.405Z,6.07
2022-08-26T20:45:36.015Z,5.15
2022-08-26T20:47:37.648Z,2.35
2022-08-26T20:49:39.117Z,4.00
2022-08-26T20:51:45.484Z,4.57
2022-08-26T20:53:47.552Z,5.60
2022-08-26T20:55:51.381Z,8.27
2022-08-26T20:57:52.988Z,3.80
2022-08-26T20:59:54.501Z,7.50
2022-08-26T21:01:56.189Z,8.80
2022-08-26T21:03:57.715Z,7.07
2022-08-26T21:05:59.544Z,13.77
2022-08-26T21:08:01.017Z,6.32
2022-08-26T21:10:03.135Z,9.57
2022-08-26T21:12:05.122Z,4.40
2022-08-26T21:14:15.903Z,4.70
2022-08-26T21:16:19.650Z,6.63
2022-08-26T21:18:21.180Z,9.00
2022-08-26T21:20:23.819Z,3.78
2022-08-26T21:22:25.406Z,7.97
2022-08-26T21:24:27.013Z,7.72
2022-08-26T21:26:28.875Z,5.50
2022-08-26T21:28:30.960Z,3.95
2022-08-26T21:30:34.189Z,2.35
2022-08-26T21:32:35.886Z,3.85
2022-08-26T21:34:37.353Z,3.20
2022-08-26T21:36:38.919Z,5.35
2022-08-26T21:38:41.295Z,6.22
2022-08-26T21:40:42.825Z,5.10
2022-08-26T21:42:44.340Z,5.72
2022-08-26T21:44:46.501Z,1.98
2022-08-26T21:46:55.678Z,4.50
2022-08-26T21:49:00.334Z,3.25
2022-08-26T21:51:04.355Z,3.92
2022-08-26T21:53:06.239Z,6.07
2022-08-26T21:55:11.576Z,8.27
2022-08-26T21:57:13.658Z,6.45
2022-08-26T21:59:17.741Z,10.30
2022-08-26T22:01:21.710Z,4.20
2022-08-26T22:03:23.222Z,2.03
2022-08-26T22:05:24.716Z,5.57
2022-08-26T22:07:26.201Z,5.25
2022-08-26T22:09:30.962Z,2.38
2022-08-26T22:11:32.481Z,5.57
2022-08-26T22:13:36.905Z,5.43
2022-08-26T22:15:40.479Z,3.70
2022-08-26T22:17:41.966Z,2.33
2022-08-26T22:19:46.215Z,3.90
2022-08-26T22:21:51.950Z,4.03
2022-08-26T22:23:57.887Z,4.65
2022-08-26T22:26:00.267Z,3.50
2022-08-26T22:28:01.972Z,6.38
2022-08-26T22:30:03.949Z,5.38
2022-08-26T22:32:05.722Z,3.30
2022-08-26T22:34:10.508Z,2.75
2022-08-26T22:36:27.108Z,7.10
2022-08-26T22:38:28.606Z,2.38
2022-08-26T22:40:30.237Z,6.03
2022-08-26T22:42:31.950Z,5.53
2022-08-26T22:44:36.359Z,3.22
2022-08-26T22:46:38.589Z,3.08
2022-08-26T22:48:40.075Z,2.75
2022-08-26T22:50:42.756Z,4.20
2022-08-26T22:52:44.291Z,2.22
2022-08-26T22:54:45.861Z,2.67
2022-08-26T22:56:47.406Z,3.10
2022-08-26T22:58:49.170Z,5.80
2022-08-26T23:00:50.749Z,5.00
2022-08-26T23:02:56.769Z,2.72
2022-08-26T23:04:58.279Z,2.08
2022-08-26T23:06:59.786Z,2.97
2022-08-26T23:09:01.274Z,3.22
2022-08-26T23:11:02.860Z,3.45
2022-08-26T23:13:07.634Z,2.80
2022-08-26T23:15:11.525Z,2.20
2022-08-26T23:17:14.259Z,3.88
2022-08-26T23:19:18.241Z,1.42
2022-08-26T23:21:19.787Z,1.67
2022-08-26T23:23:21.733Z,4.05
2022-08-26T23:25:23.276Z,1.00
2022-08-26T23:27:26.905Z,4.80
2022-08-26T23:29:29.109Z,1.27
2022-08-26T23:31:31.298Z,2.53
2022-08-26T23:33:51.452Z,2.47
2022-08-26T23:35:52.924Z,4.07
2022-08-26T23:37:55.869Z,10.10
2022-08-26T23:40:10.312Z,2.45
2022-08-26T23:42:12.699Z,5.20
2022-08-26T23:44:14.227Z,2.72
2022-08-26T23:46:16.034Z,4.18
2022-08-26T23:48:17.692Z,4.40
2022-08-26T23:50:45.670Z,2.63
2022-08-26T23:53:06.216Z,3.17
2022-08-26T23:55:08.306Z,4.95
2022-08-26T23:57:10.158Z,2.30
2022-08-26T23:59:12.028Z,3.15
